createdAt,value
2022-10-19T00:00:15.438Z,102224.31
2022-10-19T00:05:16.732Z,102225.34
2022-10-19T00:10:18.036Z,102223.00
2022-10-19T00:15:19.646Z,102212.41
2022-10-19T00:20:20.920Z,102211.59
2022-10-19T00:25:22.219Z,102206.69
2022-10-19T00:30:23.530Z,102206.03
2022-10-19T00:35:24.870Z,102206.88
2022-10-19T00:40:26.216Z,102211.09
2022-10-19T00:45:27.527Z,102212.53
2022-10-19T00:50:29.361Z,102211.22
2022-10-19T00:55:30.731Z,102216.69
2022-10-19T01:00:33.857Z,102218.31
2022-10-19T01:05:35.245Z,102218.22
2022-10-19T01:10:42.467Z,102207.56
2022-10-19T01:15:51.018Z,102203.63
2022-10-19T01:21:10.758Z,102208.25
2022-10-19T01:26:12.047Z,102207.13
2022-10-19T01:31:16.398Z,102204.91
2022-10-19T01:36:35.151Z,102205.13
2022-10-19T01:41:47.496Z,102205.03
2022-10-19T01:46:54.535Z,102194.66
2022-10-19T01:51:59.867Z,102200.03
2022-10-19T01:57:02.342Z,102185.53
2022-10-19T02:02:05.721Z,102180.47
2022-10-19T02:07:07.522Z,102180.28
2022-10-19T02:12:10.932Z,102172.78
2022-10-19T02:17:16.830Z,102170.50
2022-10-19T02:22:18.206Z,102165.63
2022-10-19T02:27:19.606Z,102164.00
2022-10-19T02:32:21.034Z,102165.78
2022-10-19T02:37:25.527Z,102167.69
2022-10-19T02:42:34.469Z,102157.78
2022-10-19T02:47:42.228Z,102166.22
2022-10-19T02:52:43.549Z,102154.88
2022-10-19T02:57:45.304Z,102161.84
2022-10-19T03:02:46.724Z,102154.47
2022-10-19T03:07:48.139Z,102153.81
2022-10-19T03:12:49.439Z,102151.63
2022-10-19T03:17:52.665Z,102144.09
2022-10-19T03:28:00.315Z,102134.56
2022-10-19T03:33:01.624Z,102125.44
2022-10-19T03:38:02.956Z,102125.59
2022-10-19T03:43:04.396Z,102131.94
2022-10-19T03:48:05.897Z,102135.75
2022-10-19T03:53:07.191Z,102135.22
2022-10-19T03:58:08.502Z,102139.94
2022-10-19T04:03:09.791Z,102142.09
2022-10-19T04:08:11.102Z,102143.59
2022-10-19T04:13:12.410Z,102142.94
2022-10-19T04:18:13.704Z,102150.25
2022-10-19T04:23:15.002Z,102141.19
2022-10-19T04:28:16.305Z,102144.75
2022-10-19T04:33:17.613Z,102145.47
2022-10-19T04:38:18.909Z,102144.44
2022-10-19T04:43:20.249Z,102144.06
2022-10-19T04:48:21.571Z,102146.38
2022-10-19T04:58:26.007Z,102150.94
2022-10-19T05:03:27.313Z,102148.88
2022-10-19T05:08:28.618Z,102148.13
2022-10-19T05:13:30.923Z,102153.38
2022-10-19T05:18:33.555Z,102148.81
2022-10-19T05:23:35.295Z,102139.59
2022-10-19T05:28:37.185Z,102127.78
2022-10-19T05:33:38.859Z,102123.84
2022-10-19T05:38:40.256Z,102126.41
2022-10-19T05:43:42.055Z,102113.63
2022-10-19T05:48:44.008Z,102122.63
2022-10-19T05:53:45.358Z,102119.66
2022-10-19T05:58:46.912Z,102125.22
2022-10-19T06:03:51.416Z,102124.16
2022-10-19T06:08:53.602Z,102106.38
2022-10-19T06:13:56.131Z,102109.38
2022-10-19T06:18:58.243Z,102116.88
2022-10-19T06:24:01.615Z,102113.66
2022-10-19T06:29:03.937Z,102118.38
2022-10-19T06:34:05.463Z,102122.81
2022-10-19T06:39:06.809Z,102123.41
2022-10-19T06:44:08.697Z,102134.53
2022-10-19T06:49:13.984Z,102129.09
2022-10-19T06:54:15.302Z,102132.06
2022-10-19T06:59:17.642Z,102132.34
2022-10-19T07:04:18.964Z,102133.53
2022-10-19T07:09:20.852Z,102128.47
2022-10-19T07:14:24.700Z,102139.94
2022-10-19T07:19:26.663Z,102139.31
2022-10-19T07:24:28.004Z,102133.25
2022-10-19T07:29:29.309Z,102140.63
2022-10-19T07:34:30.640Z,102141.63
2022-10-19T07:39:32.009Z,102131.47
2022-10-19T07:44:33.326Z,102126.72
2022-10-19T07:49:34.640Z,102123.69
2022-10-19T07:54:35.951Z,102127.47
2022-10-19T07:59:37.257Z,102124.63
2022-10-19T08:10:01.029Z,102128.22
2022-10-19T08:15:02.402Z,102135.44
2022-10-19T08:20:05.165Z,102126.09
2022-10-19T08:25:06.593Z,102125.06
2022-10-19T08:30:08.152Z,102117.00
2022-10-19T08:35:10.870Z,102116.06
2022-10-19T08:40:18.141Z,102098.00
2022-10-19T08:45:24.804Z,102094.63
2022-10-19T08:50:29.360Z,102089.63
2022-10-19T08:55:54.329Z,102075.25
2022-10-19T09:01:00.874Z,102077.56
2022-10-19T09:06:12.735Z,102076.00
2022-10-19T09:11:16.406Z,102073.84
2022-10-19T09:16:18.835Z,102072.59
2022-10-19T09:21:30.155Z,102066.84
2022-10-19T09:26:46.868Z,102061.69
2022-10-19T09:31:51.423Z,102053.13
2022-10-19T09:36:57.072Z,102047.75
2022-10-19T09:42:07.680Z,102043.94
2022-10-19T09:47:21.324Z,102037.53
2022-10-19T09:52:24.730Z,102039.25
2022-10-19T09:57:26.171Z,102040.84
2022-10-19T10:02:32.218Z,102027.38
2022-10-19T10:07:36.375Z,102038.91
2022-10-19T10:12:39.824Z,102026.06
2022-10-19T10:17:41.145Z,102031.09
2022-10-19T10:22:51.444Z,102022.34
2022-10-19T10:28:01.275Z,102019.94
2022-10-19T10:33:15.760Z,102015.56
2022-10-19T10:38:27.548Z,102014.41
2022-10-19T10:43:33.100Z,102015.19
2022-10-19T10:48:40.252Z,102015.22
2022-10-19T10:53:45.351Z,102002.16
2022-10-19T10:58:59.186Z,101997.97
2022-10-19T11:04:04.366Z,101980.19
2022-10-19T11:09:16.431Z,101970.66
2022-10-19T11:14:30.411Z,101967.47
2022-10-19T11:19:31.705Z,101960.16
2022-10-19T11:24:33.028Z,101953.94
2022-10-19T11:29:43.711Z,101944.56
2022-10-19T11:34:45.012Z,101939.06
2022-10-19T11:39:53.313Z,101935.00
2022-10-19T11:45:02.944Z,101925.06
2022-10-19T11:50:04.327Z,101916.88
2022-10-19T11:55:05.674Z,101906.19
2022-10-19T12:00:15.411Z,101902.75
2022-10-19T12:05:22.327Z,101893.22
2022-10-19T12:10:32.893Z,101889.66
2022-10-19T12:15:38.254Z,101880.59
2022-10-19T12:20:59.389Z,101868.31
2022-10-19T12:26:02.849Z,101860.44
2022-10-19T12:31:05.032Z,101849.22
2022-10-19T12:36:24.872Z,101845.25
2022-10-19T12:41:34.200Z,101829.16
2022-10-19T12:46:35.487Z,101816.06
2022-10-19T12:51:46.814Z,101824.56
2022-10-19T12:56:53.628Z,101804.56
2022-10-19T13:01:56.419Z,101803.81
2022-10-19T13:06:57.795Z,101800.72
2022-10-19T13:12:21.991Z,101787.97
2022-10-19T13:17:34.755Z,101776.03
2022-10-19T13:22:36.704Z,101769.91
2022-10-19T13:27:39.514Z,101766.03
2022-10-19T13:32:43.413Z,101760.66
2022-10-19T13:37:44.889Z,101744.75
2022-10-19T13:42:46.529Z,101738.50
2022-10-19T13:47:51.773Z,101739.03
2022-10-19T13:53:11.908Z,101745.81
2022-10-19T13:58:16.239Z,101746.28
2022-10-19T14:03:20.675Z,101734.91
2022-10-19T14:08:34.358Z,101736.88
2022-10-19T14:13:35.782Z,101749.56
2022-10-19T14:18:37.668Z,101726.97
2022-10-19T14:23:40.173Z,101726.41
2022-10-19T14:28:42.993Z,101721.19
2022-10-19T14:33:46.658Z,101705.38
2022-10-19T14:38:54.356Z,101702.00
2022-10-19T14:43:56.579Z,101704.63
2022-10-19T14:49:01.888Z,101681.72
2022-10-19T14:54:21.915Z,101686.00
2022-10-19T14:59:26.226Z,101683.38
2022-10-19T15:04:29.479Z,101681.31
2022-10-19T15:09:48.255Z,101680.97
2022-10-19T15:14:50.113Z,101660.66
2022-10-19T15:19:51.742Z,101665.16
2022-10-19T15:25:19.240Z,101662.94
2022-10-19T15:30:26.445Z,101665.16
2022-10-19T15:35:32.090Z,101663.59
2022-10-19T15:40:34.878Z,101666.03
2022-10-19T15:45:37.717Z,101663.00
2022-10-19T15:50:43.494Z,101650.44
2022-10-19T15:55:44.983Z,101653.03
2022-10-19T16:00:46.316Z,101651.81
2022-10-19T16:05:47.762Z,101649.97
2022-10-19T16:10:49.069Z,101648.75
2022-10-19T16:16:01.284Z,101644.91
2022-10-19T16:21:12.786Z,101632.16
2022-10-19T16:26:15.065Z,101635.31
2022-10-19T16:31:16.669Z,101635.88
2022-10-19T16:36:20.233Z,101632.03
2022-10-19T16:41:21.561Z,101630.00
2022-10-19T16:46:23.633Z,101620.47
2022-10-19T16:51:26.242Z,101622.03
2022-10-19T16:56:29.283Z,101624.25
2022-10-19T17:01:31.231Z,101626.09
2022-10-19T17:06:33.196Z,101625.84
2022-10-19T17:11:35.647Z,101626.06
2022-10-19T17:16:37.334Z,101625.81
2022-10-19T17:21:39.338Z,101620.97
2022-10-19T17:26:42.103Z,101603.94
2022-10-19T17:31:43.783Z,101605.56
2022-10-19T17:36:45.569Z,101602.13
2022-10-19T17:41:47.573Z,101601.69
2022-10-19T17:46:49.243Z,101613.03
2022-10-19T17:51:51.710Z,101610.38
2022-10-19T17:56:53.130Z,101615.66
2022-10-19T18:01:54.447Z,101600.91
2022-10-19T18:06:55.783Z,101599.69
2022-10-19T18:11:57.165Z,101602.72
2022-10-19T18:16:58.475Z,101608.97
2022-10-19T18:21:59.802Z,101614.25
2022-10-19T18:27:01.107Z,101592.00
2022-10-19T18:32:02.562Z,101578.22
2022-10-19T18:37:03.955Z,101576.16
2022-10-19T18:42:05.328Z,101579.00
2022-10-19T18:47:06.751Z,101569.88
2022-10-19T18:52:08.108Z,101563.34
2022-10-19T18:57:09.576Z,101574.00
2022-10-19T19:02:17.248Z,101565.63
2022-10-19T19:07:24.302Z,101565.28
2022-10-19T19:12:25.621Z,101556.88
2022-10-19T19:17:26.965Z,101573.97
2022-10-19T19:22:28.329Z,101565.38
2022-10-19T19:27:31.877Z,101556.25
2022-10-19T19:32:34.627Z,101547.31
2022-10-19T19:37:36.694Z,101541.75
2022-10-19T19:42:38.223Z,101538.91
2022-10-19T19:47:39.522Z,101527.06
2022-10-19T19:52:40.920Z,101535.66
2022-10-19T19:57:42.227Z,101525.53
2022-10-19T20:02:43.575Z,101531.41
2022-10-19T20:07:45.045Z,101531.78
2022-10-19T20:12:47.047Z,101515.56
2022-10-19T20:17:48.420Z,101509.09
2022-10-19T20:22:49.873Z,101498.16
2022-10-19T20:27:51.241Z,101496.66
2022-10-19T20:32:55.681Z,101499.72
2022-10-19T20:37:58.476Z,101500.88
2022-10-19T20:42:59.774Z,101507.13
2022-10-19T20:48:01.105Z,101496.66
2022-10-19T20:53:02.502Z,101493.19
2022-10-19T20:58:03.834Z,101476.91
2022-10-19T21:03:05.133Z,101461.91
2022-10-19T21:08:09.364Z,101457.56
2022-10-19T21:13:10.897Z,101470.72
2022-10-19T21:18:12.227Z,101471.44
2022-10-19T21:23:13.586Z,101455.94
2022-10-19T21:28:14.892Z,101463.16
2022-10-19T21:33:16.213Z,101458.13
2022-10-19T21:38:17.513Z,101457.72
2022-10-19T21:43:18.798Z,101445.16
2022-10-19T21:48:20.438Z,101446.63
2022-10-19T21:53:23.510Z,101444.19
2022-10-19T21:58:24.861Z,101438.41
2022-10-19T22:03:26.155Z,101445.19
2022-10-19T22:08:27.584Z,101440.63
2022-10-19T22:13:28.928Z,101433.94
2022-10-19T22:18:30.332Z,101430.47
2022-10-19T22:23:31.838Z,101420.59
2022-10-19T22:28:33.139Z,101416.78
2022-10-19T22:33:34.938Z,101402.94
2022-10-19T22:38:36.343Z,101410.16
2022-10-19T22:43:37.684Z,101387.00
2022-10-19T22:48:39.088Z,101376.75
2022-10-19T22:53:40.422Z,101354.13
2022-10-19T22:58:41.714Z,101354.34
2022-10-19T23:03:43.365Z,101337.44
2022-10-19T23:08:44.768Z,101337.84
2022-10-19T23:13:46.300Z,101330.22
2022-10-19T23:18:47.609Z,101332.59
2022-10-19T23:23:48.900Z,101326.56
2022-10-19T23:28:50.608Z,101324.13
2022-10-19T23:33:54.750Z,101307.56
2022-10-19T23:38:56.837Z,101318.81
2022-10-19T23:43:58.148Z,101315.19
2022-10-19T23:48:59.451Z,101310.91
2022-10-19T23:54:00.775Z,101309.03
2022-10-19T23:59:02.061Z,101309.88
